sensor_id;sensor_type;location;lat;lon;timestamp;temperature;humidity
38788;DHT22;24536;45.488;12.238;2022-09-09T00:02:20;24.70;88.30
38788;DHT22;24536;45.488;12.238;2022-09-09T00:04:58;24.70;88.50
38788;DHT22;24536;45.488;12.238;2022-09-09T00:07:49;24.80;88.50
38788;DHT22;24536;45.488;12.238;2022-09-09T00:10:27;24.80;88.60
38788;DHT22;24536;45.488;12.238;2022-09-09T00:15:26;24.80;88.50
38788;DHT22;24536;45.488;12.238;2022-09-09T00:21:15;24.70;88.70
38788;DHT22;24536;45.488;12.238;2022-09-09T00:23:51;24.70;89.10
38788;DHT22;24536;45.488;12.238;2022-09-09T00:26:38;24.70;88.80
38788;DHT22;24536;45.488;12.238;2022-09-09T00:29:20;24.70;88.90
38788;DHT22;24536;45.488;12.238;2022-09-09T00:31:48;24.70;88.90
38788;DHT22;24536;45.488;12.238;2022-09-09T00:34:23;24.60;89.00
38788;DHT22;24536;45.488;12.238;2022-09-09T00:36:52;24.40;89.30
38788;DHT22;24536;45.488;12.238;2022-09-09T00:39:34;24.20;90.10
38788;DHT22;24536;45.488;12.238;2022-09-09T00:42:14;23.80;90.90
38788;DHT22;24536;45.488;12.238;2022-09-09T00:45:08;23.70;91.00
38788;DHT22;24536;45.488;12.238;2022-09-09T00:47:51;23.70;91.00
38788;DHT22;24536;45.488;12.238;2022-09-09T00:50:39;23.80;90.70
38788;DHT22;24536;45.488;12.238;2022-09-09T00:53:33;23.90;90.60
38788;DHT22;24536;45.488;12.238;2022-09-09T00:56:17;24.00;90.40
38788;DHT22;24536;45.488;12.238;2022-09-09T00:59:16;24.10;90.30
38788;DHT22;24536;45.488;12.238;2022-09-09T01:01:46;24.20;90.20
38788;DHT22;24536;45.488;12.238;2022-09-09T01:04:18;24.20;90.10
38788;DHT22;24536;45.488;12.238;2022-09-09T01:06:55;24.30;90.10
38788;DHT22;24536;45.488;12.238;2022-09-09T01:09:29;24.20;90.00
38788;DHT22;24536;45.488;12.238;2022-09-09T01:12:03;24.20;89.90
38788;DHT22;24536;45.488;12.238;2022-09-09T01:17:26;24.20;89.80
38788;DHT22;24536;45.488;12.238;2022-09-09T01:20:10;24.20;89.60
38788;DHT22;24536;45.488;12.238;2022-09-09T01:27:55;24.20;89.10
38788;DHT22;24536;45.488;12.238;2022-09-09T01:30:22;24.20;89.00
38788;DHT22;24536;45.488;12.238;2022-09-09T01:32:55;24.20;88.80
38788;DHT22;24536;45.488;12.238;2022-09-09T01:38:10;24.10;88.60
38788;DHT22;24536;45.488;12.238;2022-09-09T01:40:36;24.10;88.50
38788;DHT22;24536;45.488;12.238;2022-09-09T01:43:02;24.10;88.30
38788;DHT22;24536;45.488;12.238;2022-09-09T01:45:29;24.10;88.10
38788;DHT22;24536;45.488;12.238;2022-09-09T01:47:56;24.00;88.00
38788;DHT22;24536;45.488;12.238;2022-09-09T01:50:22;24.00;87.70
38788;DHT22;24536;45.488;12.238;2022-09-09T01:52:51;24.00;87.50
38788;DHT22;24536;45.488;12.238;2022-09-09T01:55:23;24.00;87.60
38788;DHT22;24536;45.488;12.238;2022-09-09T02:00:37;23.90;87.80
38788;DHT22;24536;45.488;12.238;2022-09-09T02:03:29;23.90;87.90
38788;DHT22;24536;45.488;12.238;2022-09-09T02:08:47;23.70;88.10
38788;DHT22;24536;45.488;12.238;2022-09-09T02:11:23;23.80;88.20
38788;DHT22;24536;45.488;12.238;2022-09-09T02:13:53;23.80;88.40
38788;DHT22;24536;45.488;12.238;2022-09-09T02:16:56;23.80;88.40
38788;DHT22;24536;45.488;12.238;2022-09-09T02:19:48;23.80;88.60
38788;DHT22;24536;45.488;12.238;2022-09-09T02:22:17;23.80;88.50
38788;DHT22;24536;45.488;12.238;2022-09-09T02:24:45;23.80;88.60
38788;DHT22;24536;45.488;12.238;2022-09-09T02:27:12;23.80;88.70
38788;DHT22;24536;45.488;12.238;2022-09-09T02:29:41;23.80;88.60
38788;DHT22;24536;45.488;12.238;2022-09-09T02:32:11;23.80;88.80
38788;DHT22;24536;45.488;12.238;2022-09-09T02:34:44;23.80;88.70
38788;DHT22;24536;45.488;12.238;2022-09-09T02:37:16;23.80;88.80
38788;DHT22;24536;45.488;12.238;2022-09-09T02:39:43;23.80;88.90
38788;DHT22;24536;45.488;12.238;2022-09-09T02:42:09;23.80;88.90
38788;DHT22;24536;45.488;12.238;2022-09-09T02:44:35;23.80;88.80
38788;DHT22;24536;45.488;12.238;2022-09-09T02:57:54;23.60;89.10
38788;DHT22;24536;45.488;12.238;2022-09-09T03:00:26;23.50;89.20
38788;DHT22;24536;45.488;12.238;2022-09-09T03:02:53;23.40;89.40
38788;DHT22;24536;45.488;12.238;2022-09-09T03:05:20;23.40;89.30
38788;DHT22;24536;45.488;12.238;2022-09-09T03:07:46;23.40;89.20
38788;DHT22;24536;45.488;12.238;2022-09-09T03:10:13;23.30;89.90
38788;DHT22;24536;45.488;12.238;2022-09-09T03:12:39;23.40;89.50
38788;DHT22;24536;45.488;12.238;2022-09-09T03:15:05;23.40;89.30
38788;DHT22;24536;45.488;12.238;2022-09-09T03:17:31;23.40;89.20
38788;DHT22;24536;45.488;12.238;2022-09-09T03:19:57;23.40;89.10
38788;DHT22;24536;45.488;12.238;2022-09-09T03:22:24;23.50;89.00
38788;DHT22;24536;45.488;12.238;2022-09-09T03:24:51;23.50;88.90
38788;DHT22;24536;45.488;12.238;2022-09-09T03:27:17;23.50;88.80
38788;DHT22;24536;45.488;12.238;2022-09-09T03:29:45;23.50;88.70
38788;DHT22;24536;45.488;12.238;2022-09-09T03:32:11;23.50;88.70
38788;DHT22;24536;45.488;12.238;2022-09-09T03:34:37;23.50;88.60
38788;DHT22;24536;45.488;12.238;2022-09-09T03:37:05;23.50;88.70
38788;DHT22;24536;45.488;12.238;2022-09-09T03:39:31;23.50;88.70
38788;DHT22;24536;45.488;12.238;2022-09-09T03:41:57;23.50;88.80
38788;DHT22;24536;45.488;12.238;2022-09-09T03:44:22;23.60;88.90
38788;DHT22;24536;45.488;12.238;2022-09-09T03:46:48;23.60;88.80
38788;DHT22;24536;45.488;12.238;2022-09-09T03:49:14;23.60;88.80
38788;DHT22;24536;45.488;12.238;2022-09-09T03:51:41;23.60;88.90
38788;DHT22;24536;45.488;12.238;2022-09-09T03:54:07;23.60;88.90
38788;DHT22;24536;45.488;12.238;2022-09-09T03:56:36;23.60;89.20
38788;DHT22;24536;45.488;12.238;2022-09-09T03:59:02;23.60;89.40
38788;DHT22;24536;45.488;12.238;2022-09-09T04:01:28;23.50;89.50
38788;DHT22;24536;45.488;12.238;2022-09-09T04:03:54;23.50;89.70
38788;DHT22;24536;45.488;12.238;2022-09-09T04:06:24;23.40;90.00
38788;DHT22;24536;45.488;12.238;2022-09-09T04:08:50;23.50;89.70
38788;DHT22;24536;45.488;12.238;2022-09-09T04:11:17;23.50;90.10
38788;DHT22;24536;45.488;12.238;2022-09-09T04:13:43;23.50;89.80
38788;DHT22;24536;45.488;12.238;2022-09-09T04:16:10;23.50;90.00
38788;DHT22;24536;45.488;12.238;2022-09-09T04:18:38;23.60;89.80
38788;DHT22;24536;45.488;12.238;2022-09-09T04:21:05;23.60;89.70
38788;DHT22;24536;45.488;12.238;2022-09-09T04:23:32;23.60;89.80
38788;DHT22;24536;45.488;12.238;2022-09-09T04:26:00;23.50;90.20
38788;DHT22;24536;45.488;12.238;2022-09-09T04:28:29;23.40;90.00
38788;DHT22;24536;45.488;12.238;2022-09-09T04:30:56;23.40;90.20
38788;DHT22;24536;45.488;12.238;2022-09-09T04:33:25;23.40;90.20
38788;DHT22;24536;45.488;12.238;2022-09-09T04:35:52;23.50;90.20
38788;DHT22;24536;45.488;12.238;2022-09-09T04:38:19;23.50;90.10
38788;DHT22;24536;45.488;12.238;2022-09-09T04:40:47;23.50;90.10
38788;DHT22;24536;45.488;12.238;2022-09-09T04:43:13;23.50;90.20
38788;DHT22;24536;45.488;12.238;2022-09-09T04:45:40;23.50;90.10
38788;DHT22;24536;45.488;12.238;2022-09-09T04:48:07;23.60;90.10
38788;DHT22;24536;45.488;12.238;2022-09-09T04:50:33;23.60;90.10
38788;DHT22;24536;45.488;12.238;2022-09-09T04:53:03;23.60;90.20
38788;DHT22;24536;45.488;12.238;2022-09-09T04:55:30;23.70;90.10
38788;DHT22;24536;45.488;12.238;2022-09-09T04:57:57;23.80;90.00
38788;DHT22;24536;45.488;12.238;2022-09-09T05:00:25;23.80;89.90
38788;DHT22;24536;45.488;12.238;2022-09-09T05:02:51;23.80;89.80
38788;DHT22;24536;45.488;12.238;2022-09-09T05:05:17;23.80;89.70
38788;DHT22;24536;45.488;12.238;2022-09-09T05:07:43;23.80;89.60
38788;DHT22;24536;45.488;12.238;2022-09-09T05:10:09;23.80;89.60
38788;DHT22;24536;45.488;12.238;2022-09-09T05:12:36;23.90;89.50
38788;DHT22;24536;45.488;12.238;2022-09-09T05:15:02;23.90;89.40
38788;DHT22;24536;45.488;12.238;2022-09-09T05:17:27;23.90;89.10
38788;DHT22;24536;45.488;12.238;2022-09-09T05:19:53;23.90;89.10
38788;DHT22;24536;45.488;12.238;2022-09-09T05:22:20;23.90;89.10
38788;DHT22;24536;45.488;12.238;2022-09-09T05:24:46;23.90;89.10
38788;DHT22;24536;45.488;12.238;2022-09-09T05:27:13;23.90;89.00
38788;DHT22;24536;45.488;12.238;2022-09-09T05:29:39;23.90;88.90
38788;DHT22;24536;45.488;12.238;2022-09-09T05:32:06;23.90;88.80
38788;DHT22;24536;45.488;12.238;2022-09-09T05:34:32;23.90;88.60
38788;DHT22;24536;45.488;12.238;2022-09-09T05:36:58;23.90;88.40
38788;DHT22;24536;45.488;12.238;2022-09-09T05:39:23;24.00;88.30
38788;DHT22;24536;45.488;12.238;2022-09-09T05:41:49;23.90;88.30
38788;DHT22;24536;45.488;12.238;2022-09-09T05:44:16;23.90;88.30
38788;DHT22;24536;45.488;12.238;2022-09-09T05:46:42;23.90;88.40
38788;DHT22;24536;45.488;12.238;2022-09-09T05:49:07;23.90;88.20
38788;DHT22;24536;45.488;12.238;2022-09-09T05:51:33;23.90;88.30
38788;DHT22;24536;45.488;12.238;2022-09-09T05:53:59;23.90;88.30
38788;DHT22;24536;45.488;12.238;2022-09-09T05:56:27;24.00;88.30
38788;DHT22;24536;45.488;12.238;2022-09-09T05:58:54;24.10;88.30
38788;DHT22;24536;45.488;12.238;2022-09-09T06:01:23;24.10;88.20
38788;DHT22;24536;45.488;12.238;2022-09-09T06:03:50;24.10;88.10
38788;DHT22;24536;45.488;12.238;2022-09-09T06:06:21;24.10;88.60
38788;DHT22;24536;45.488;12.238;2022-09-09T06:08:50;24.10;88.10
38788;DHT22;24536;45.488;12.238;2022-09-09T06:11:19;24.10;88.20
38788;DHT22;24536;45.488;12.238;2022-09-09T06:13:45;24.10;88.20
38788;DHT22;24536;45.488;12.238;2022-09-09T06:16:13;24.20;88.70
38788;DHT22;24536;45.488;12.238;2022-09-09T06:18:39;24.20;88.10
38788;DHT22;24536;45.488;12.238;2022-09-09T06:21:09;24.20;88.20
38788;DHT22;24536;45.488;12.238;2022-09-09T06:23:36;24.20;88.10
38788;DHT22;24536;45.488;12.238;2022-09-09T06:26:15;24.30;88.10
38788;DHT22;24536;45.488;12.238;2022-09-09T06:28:43;24.30;88.10
38788;DHT22;24536;45.488;12.238;2022-09-09T06:31:11;24.30;88.10
38788;DHT22;24536;45.488;12.238;2022-09-09T06:33:39;24.40;88.00
38788;DHT22;24536;45.488;12.238;2022-09-09T06:36:11;24.40;88.10
38788;DHT22;24536;45.488;12.238;2022-09-09T06:38:37;24.40;88.20
38788;DHT22;24536;45.488;12.238;2022-09-09T06:41:03;24.40;88.40
38788;DHT22;24536;45.488;12.238;2022-09-09T06:43:31;24.40;88.40
38788;DHT22;24536;45.488;12.238;2022-09-09T06:45:59;24.40;88.50
38788;DHT22;24536;45.488;12.238;2022-09-09T06:48:26;24.50;88.80
38788;DHT22;24536;45.488;12.238;2022-09-09T06:51:13;24.50;88.70
38788;DHT22;24536;45.488;12.238;2022-09-09T06:53:40;24.60;88.80
38788;DHT22;24536;45.488;12.238;2022-09-09T06:58:40;24.70;88.70
38788;DHT22;24536;45.488;12.238;2022-09-09T07:01:14;24.70;88.60
38788;DHT22;24536;45.488;12.238;2022-09-09T07:03:41;24.80;89.00
38788;DHT22;24536;45.488;12.238;2022-09-09T07:06:12;24.90;88.70
38788;DHT22;24536;45.488;12.238;2022-09-09T07:08:40;24.90;88.40
38788;DHT22;24536;45.488;12.238;2022-09-09T07:11:08;25.00;88.10
38788;DHT22;24536;45.488;12.238;2022-09-09T07:13:38;25.00;88.00
38788;DHT22;24536;45.488;12.238;2022-09-09T07:16:07;25.00;87.90
38788;DHT22;24536;45.488;12.238;2022-09-09T07:18:40;25.10;87.90
38788;DHT22;24536;45.488;12.238;2022-09-09T07:21:08;25.10;87.80
38788;DHT22;24536;45.488;12.238;2022-09-09T07:23:34;25.10;87.70
38788;DHT22;24536;45.488;12.238;2022-09-09T07:26:15;25.20;87.70
38788;DHT22;24536;45.488;12.238;2022-09-09T07:28:42;25.20;87.70
38788;DHT22;24536;45.488;12.238;2022-09-09T07:31:22;25.30;87.80
38788;DHT22;24536;45.488;12.238;2022-09-09T07:33:48;25.30;87.60
38788;DHT22;24536;45.488;12.238;2022-09-09T07:36:19;25.30;87.50
38788;DHT22;24536;45.488;12.238;2022-09-09T07:38:49;25.30;87.50
38788;DHT22;24536;45.488;12.238;2022-09-09T07:41:22;25.30;87.60
38788;DHT22;24536;45.488;12.238;2022-09-09T07:43:49;25.40;87.80
38788;DHT22;24536;45.488;12.238;2022-09-09T07:46:17;25.40;87.70
38788;DHT22;24536;45.488;12.238;2022-09-09T07:48:51;25.40;87.90
38788;DHT22;24536;45.488;12.238;2022-09-09T07:51:20;25.40;87.70
38788;DHT22;24536;45.488;12.238;2022-09-09T07:53:47;25.50;87.80
38788;DHT22;24536;45.488;12.238;2022-09-09T07:56:16;25.50;87.70
38788;DHT22;24536;45.488;12.238;2022-09-09T07:58:49;25.60;87.60
38788;DHT22;24536;45.488;12.238;2022-09-09T08:01:16;25.70;86.50
38788;DHT22;24536;45.488;12.238;2022-09-09T08:03:44;25.80;86.80
38788;DHT22;24536;45.488;12.238;2022-09-09T08:06:11;25.90;86.60
38788;DHT22;24536;45.488;12.238;2022-09-09T08:08:42;26.00;86.20
38788;DHT22;24536;45.488;12.238;2022-09-09T08:11:14;26.10;85.90
38788;DHT22;24536;45.488;12.238;2022-09-09T08:13:42;26.20;85.40
38788;DHT22;24536;45.488;12.238;2022-09-09T08:16:16;26.20;85.10
38788;DHT22;24536;45.488;12.238;2022-09-09T08:18:43;26.30;84.40
38788;DHT22;24536;45.488;12.238;2022-09-09T08:21:17;26.30;84.20
38788;DHT22;24536;45.488;12.238;2022-09-09T08:23:45;26.40;84.30
38788;DHT22;24536;45.488;12.238;2022-09-09T08:26:20;26.50;84.00
38788;DHT22;24536;45.488;12.238;2022-09-09T08:28:49;26.50;83.30
38788;DHT22;24536;45.488;12.238;2022-09-09T08:31:21;26.60;83.20
38788;DHT22;24536;45.488;12.238;2022-09-09T08:33:47;26.70;82.60
38788;DHT22;24536;45.488;12.238;2022-09-09T08:36:19;26.70;81.80
38788;DHT22;24536;45.488;12.238;2022-09-09T08:38:48;26.80;81.80
38788;DHT22;24536;45.488;12.238;2022-09-09T08:41:43;26.90;81.90
38788;DHT22;24536;45.488;12.238;2022-09-09T08:44:26;27.00;81.70
38788;DHT22;24536;45.488;12.238;2022-09-09T08:57:55;27.30;79.10
38788;DHT22;24536;45.488;12.238;2022-09-09T09:00:21;27.40;79.20
38788;DHT22;24536;45.488;12.238;2022-09-09T09:05:57;27.60;76.30
38788;DHT22;24536;45.488;12.238;2022-09-09T09:08:39;27.50;77.60
38788;DHT22;24536;45.488;12.238;2022-09-09T09:11:09;27.60;77.80
38788;DHT22;24536;45.488;12.238;2022-09-09T09:13:52;27.70;77.20
38788;DHT22;24536;45.488;12.238;2022-09-09T09:16:32;27.60;76.80
38788;DHT22;24536;45.488;12.238;2022-09-09T09:19:00;27.50;75.90
38788;DHT22;24536;45.488;12.238;2022-09-09T09:21:41;27.40;76.90
38788;DHT22;24536;45.488;12.238;2022-09-09T09:26:44;27.60;77.30
38788;DHT22;24536;45.488;12.238;2022-09-09T09:29:13;27.70;76.70
38788;DHT22;24536;45.488;12.238;2022-09-09T09:31:47;27.80;76.20
38788;DHT22;24536;45.488;12.238;2022-09-09T09:34:14;28.00;75.80
38788;DHT22;24536;45.488;12.238;2022-09-09T09:36:45;28.10;75.50
38788;DHT22;24536;45.488;12.238;2022-09-09T09:41:48;28.40;75.20
38788;DHT22;24536;45.488;12.238;2022-09-09T09:44:32;28.50;74.20
38788;DHT22;24536;45.488;12.238;2022-09-09T09:47:12;28.60;74.10
38788;DHT22;24536;45.488;12.238;2022-09-09T09:49:38;28.80;74.30
38788;DHT22;24536;45.488;12.238;2022-09-09T09:52:06;28.90;71.90
38788;DHT22;24536;45.488;12.238;2022-09-09T09:54:37;28.70;72.00
38788;DHT22;24536;45.488;12.238;2022-09-09T09:57:12;28.80;72.50
38788;DHT22;24536;45.488;12.238;2022-09-09T09:59:38;28.90;72.70
38788;DHT22;24536;45.488;12.238;2022-09-09T10:02:20;29.00;72.80
38788;DHT22;24536;45.488;12.238;2022-09-09T10:05:03;29.30;72.70
38788;DHT22;24536;45.488;12.238;2022-09-09T10:07:29;29.50;72.10
38788;DHT22;24536;45.488;12.238;2022-09-09T10:09:56;29.50;72.10
38788;DHT22;24536;45.488;12.238;2022-09-09T10:32:04;28.60;70.80
38788;DHT22;24536;45.488;12.238;2022-09-09T10:34:51;28.20;70.40
38788;DHT22;24536;45.488;12.238;2022-09-09T10:40:34;28.10;72.30
38788;DHT22;24536;45.488;12.238;2022-09-09T10:56:37;27.80;73.00
38788;DHT22;24536;45.488;12.238;2022-09-09T11:01:41;27.60;72.30
38788;DHT22;24536;45.488;12.238;2022-09-09T11:06:50;27.60;72.90
38788;DHT22;24536;45.488;12.238;2022-09-09T11:09:22;27.60;73.30
38788;DHT22;24536;45.488;12.238;2022-09-09T11:11:57;27.60;73.30
38788;DHT22;24536;45.488;12.238;2022-09-09T11:17:18;27.60;71.90
38788;DHT22;24536;45.488;12.238;2022-09-09T11:19:44;27.50;71.30
38788;DHT22;24536;45.488;12.238;2022-09-09T11:30:16;27.60;72.80
38788;DHT22;24536;45.488;12.238;2022-09-09T11:40:37;27.70;72.10
38788;DHT22;24536;45.488;12.238;2022-09-09T11:43:04;27.70;71.50
38788;DHT22;24536;45.488;12.238;2022-09-09T11:45:32;27.70;71.70
38788;DHT22;24536;45.488;12.238;2022-09-09T11:48:02;27.80;71.80
38788;DHT22;24536;45.488;12.238;2022-09-09T11:50:33;27.80;71.80
38788;DHT22;24536;45.488;12.238;2022-09-09T11:53:14;27.80;72.00
38788;DHT22;24536;45.488;12.238;2022-09-09T11:55:41;27.90;72.20
38788;DHT22;24536;45.488;12.238;2022-09-09T12:00:43;27.90;72.00
38788;DHT22;24536;45.488;12.238;2022-09-09T12:05:56;28.00;71.10
38788;DHT22;24536;45.488;12.238;2022-09-09T12:08:27;28.00;71.00
38788;DHT22;24536;45.488;12.238;2022-09-09T12:10:58;28.00;70.90
38788;DHT22;24536;45.488;12.238;2022-09-09T12:13:27;27.90;71.10
38788;DHT22;24536;45.488;12.238;2022-09-09T12:15:58;27.80;71.30
38788;DHT22;24536;45.488;12.238;2022-09-09T12:18:34;27.80;71.30
38788;DHT22;24536;45.488;12.238;2022-09-09T12:23:50;27.90;72.10
38788;DHT22;24536;45.488;12.238;2022-09-09T12:26:28;28.00;72.30
38788;DHT22;24536;45.488;12.238;2022-09-09T12:32:14;28.20;72.50
38788;DHT22;24536;45.488;12.238;2022-09-09T12:34:44;28.10;72.60
38788;DHT22;24536;45.488;12.238;2022-09-09T12:40:05;28.10;72.90
38788;DHT22;24536;45.488;12.238;2022-09-09T12:42:31;28.10;73.20
38788;DHT22;24536;45.488;12.238;2022-09-09T12:45:02;28.10;73.30
38788;DHT22;24536;45.488;12.238;2022-09-09T12:47:41;28.00;73.00
38788;DHT22;24536;45.488;12.238;2022-09-09T12:50:17;28.00;72.90
38788;DHT22;24536;45.488;12.238;2022-09-09T12:52:44;27.80;72.90
38788;DHT22;24536;45.488;12.238;2022-09-09T12:55:20;27.80;73.10
38788;DHT22;24536;45.488;12.238;2022-09-09T12:57:48;27.80;73.20
38788;DHT22;24536;45.488;12.238;2022-09-09T13:00:21;27.80;73.10
38788;DHT22;24536;45.488;12.238;2022-09-09T13:02:56;27.80;73.20
38788;DHT22;24536;45.488;12.238;2022-09-09T13:05:36;27.90;73.50
38788;DHT22;24536;45.488;12.238;2022-09-09T13:08:04;27.80;73.20
38788;DHT22;24536;45.488;12.238;2022-09-09T13:10:39;27.80;73.30
38788;DHT22;24536;45.488;12.238;2022-09-09T13:13:17;27.80;73.60
38788;DHT22;24536;45.488;12.238;2022-09-09T13:15:56;27.80;73.80
38788;DHT22;24536;45.488;12.238;2022-09-09T13:18:36;27.90;73.90
38788;DHT22;24536;45.488;12.238;2022-09-09T13:21:03;28.00;74.10
38788;DHT22;24536;45.488;12.238;2022-09-09T13:23:31;28.00;73.90
38788;DHT22;24536;45.488;12.238;2022-09-09T13:28:30;28.10;74.50
38788;DHT22;24536;45.488;12.238;2022-09-09T13:31:01;28.10;74.80
38788;DHT22;24536;45.488;12.238;2022-09-09T13:33:35;28.10;74.80
38788;DHT22;24536;45.488;12.238;2022-09-09T13:36:09;27.90;74.40
38788;DHT22;24536;45.488;12.238;2022-09-09T13:41:20;27.30;72.90
38788;DHT22;24536;45.488;12.238;2022-09-09T13:43:47;27.30;73.80
38788;DHT22;24536;45.488;12.238;2022-09-09T13:51:50;27.20;73.80
38788;DHT22;24536;45.488;12.238;2022-09-09T13:54:19;27.20;74.30
38788;DHT22;24536;45.488;12.238;2022-09-09T13:56:46;27.00;74.40
38788;DHT22;24536;45.488;12.238;2022-09-09T13:59:16;26.80;74.40
38788;DHT22;24536;45.488;12.238;2022-09-09T14:01:42;26.70;75.00
38788;DHT22;24536;45.488;12.238;2022-09-09T14:04:09;26.60;76.20
38788;DHT22;24536;45.488;12.238;2022-09-09T14:06:35;26.30;79.10
38788;DHT22;24536;45.488;12.238;2022-09-09T14:09:04;26.10;82.70
38788;DHT22;24536;45.488;12.238;2022-09-09T14:11:31;25.50;84.30
38788;DHT22;24536;45.488;12.238;2022-09-09T14:13:57;25.20;86.30
38788;DHT22;24536;45.488;12.238;2022-09-09T14:16:22;25.30;86.50
38788;DHT22;24536;45.488;12.238;2022-09-09T14:18:48;24.90;86.00
38788;DHT22;24536;45.488;12.238;2022-09-09T14:21:16;24.80;86.80
38788;DHT22;24536;45.488;12.238;2022-09-09T14:23:42;24.60;86.10
38788;DHT22;24536;45.488;12.238;2022-09-09T14:26:08;24.60;85.90
38788;DHT22;24536;45.488;12.238;2022-09-09T14:28:35;24.60;86.40
38788;DHT22;24536;45.488;12.238;2022-09-09T14:31:03;24.80;85.80
38788;DHT22;24536;45.488;12.238;2022-09-09T14:33:29;25.10;85.30
38788;DHT22;24536;45.488;12.238;2022-09-09T14:36:03;25.30;84.90
38788;DHT22;24536;45.488;12.238;2022-09-09T14:38:30;25.30;83.60
38788;DHT22;24536;45.488;12.238;2022-09-09T14:40:56;25.40;84.30
38788;DHT22;24536;45.488;12.238;2022-09-09T14:43:24;25.40;83.70
38788;DHT22;24536;45.488;12.238;2022-09-09T14:45:49;25.40;83.20
38788;DHT22;24536;45.488;12.238;2022-09-09T14:48:17;25.40;82.80
38788;DHT22;24536;45.488;12.238;2022-09-09T14:50:43;25.40;83.00
38788;DHT22;24536;45.488;12.238;2022-09-09T14:53:09;25.30;82.80
38788;DHT22;24536;45.488;12.238;2022-09-09T14:55:36;25.30;81.60
38788;DHT22;24536;45.488;12.238;2022-09-09T14:58:04;25.40;81.60
38788;DHT22;24536;45.488;12.238;2022-09-09T15:00:31;25.60;81.30
38788;DHT22;24536;45.488;12.238;2022-09-09T15:02:57;25.70;81.10
38788;DHT22;24536;45.488;12.238;2022-09-09T15:05:22;25.90;80.30
38788;DHT22;24536;45.488;12.238;2022-09-09T15:07:49;26.00;79.70
38788;DHT22;24536;45.488;12.238;2022-09-09T15:10:15;26.00;79.70
38788;DHT22;24536;45.488;12.238;2022-09-09T15:12:43;26.10;79.60
38788;DHT22;24536;45.488;12.238;2022-09-09T15:15:10;26.20;79.60
38788;DHT22;24536;45.488;12.238;2022-09-09T15:17:38;26.20;78.70
38788;DHT22;24536;45.488;12.238;2022-09-09T15:20:04;26.30;78.50
38788;DHT22;24536;45.488;12.238;2022-09-09T15:22:31;26.20;79.10
38788;DHT22;24536;45.488;12.238;2022-09-09T15:24:57;26.20;79.40
38788;DHT22;24536;45.488;12.238;2022-09-09T15:27:23;26.20;79.40
38788;DHT22;24536;45.488;12.238;2022-09-09T15:29:49;26.20;79.60
38788;DHT22;24536;45.488;12.238;2022-09-09T15:32:17;26.30;79.30
38788;DHT22;24536;45.488;12.238;2022-09-09T15:34:43;26.30;79.10
38788;DHT22;24536;45.488;12.238;2022-09-09T15:37:12;26.40;78.70
38788;DHT22;24536;45.488;12.238;2022-09-09T15:39:40;26.40;78.40
38788;DHT22;24536;45.488;12.238;2022-09-09T15:42:06;26.30;75.70
38788;DHT22;24536;45.488;12.238;2022-09-09T15:44:42;26.30;77.40
38788;DHT22;24536;45.488;12.238;2022-09-09T15:47:11;26.30;77.10
38788;DHT22;24536;45.488;12.238;2022-09-09T15:49:38;26.40;77.10
38788;DHT22;24536;45.488;12.238;2022-09-09T15:52:04;26.40;76.80
38788;DHT22;24536;45.488;12.238;2022-09-09T15:54:34;26.50;76.70
38788;DHT22;24536;45.488;12.238;2022-09-09T15:57:03;26.30;77.20
38788;DHT22;24536;45.488;12.238;2022-09-09T15:59:31;26.10;78.50
38788;DHT22;24536;45.488;12.238;2022-09-09T16:01:57;25.90;78.90
38788;DHT22;24536;45.488;12.238;2022-09-09T16:04:25;25.90;79.50
38788;DHT22;24536;45.488;12.238;2022-09-09T16:06:53;26.00;79.50
38788;DHT22;24536;45.488;12.238;2022-09-09T16:09:19;26.10;79.50
38788;DHT22;24536;45.488;12.238;2022-09-09T16:11:45;26.10;79.40
38788;DHT22;24536;45.488;12.238;2022-09-09T16:14:13;26.20;79.40
38788;DHT22;24536;45.488;12.238;2022-09-09T16:16:38;26.20;79.30
38788;DHT22;24536;45.488;12.238;2022-09-09T16:19:06;26.20;78.90
38788;DHT22;24536;45.488;12.238;2022-09-09T16:21:38;26.30;78.80
38788;DHT22;24536;45.488;12.238;2022-09-09T16:24:06;26.30;78.50
38788;DHT22;24536;45.488;12.238;2022-09-09T16:26:34;26.30;78.20
38788;DHT22;24536;45.488;12.238;2022-09-09T16:29:01;26.30;77.90
38788;DHT22;24536;45.488;12.238;2022-09-09T16:31:28;26.30;77.80
38788;DHT22;24536;45.488;12.238;2022-09-09T16:33:54;26.30;77.90
38788;DHT22;24536;45.488;12.238;2022-09-09T16:36:31;26.30;78.00
38788;DHT22;24536;45.488;12.238;2022-09-09T16:39:03;26.30;77.90
38788;DHT22;24536;45.488;12.238;2022-09-09T16:41:29;26.30;78.00
38788;DHT22;24536;45.488;12.238;2022-09-09T16:43:58;26.30;77.90
38788;DHT22;24536;45.488;12.238;2022-09-09T16:46:25;26.30;77.90
38788;DHT22;24536;45.488;12.238;2022-09-09T16:48:53;26.30;78.10
38788;DHT22;24536;45.488;12.238;2022-09-09T16:51:22;26.40;78.10
38788;DHT22;24536;45.488;12.238;2022-09-09T16:53:51;26.30;77.90
38788;DHT22;24536;45.488;12.238;2022-09-09T16:56:20;26.30;78.00
38788;DHT22;24536;45.488;12.238;2022-09-09T16:58:51;26.30;78.10
38788;DHT22;24536;45.488;12.238;2022-09-09T17:01:17;26.20;77.90
38788;DHT22;24536;45.488;12.238;2022-09-09T17:03:42;26.20;78.10
38788;DHT22;24536;45.488;12.238;2022-09-09T17:06:12;26.20;78.30
38788;DHT22;24536;45.488;12.238;2022-09-09T17:08:39;26.20;78.60
38788;DHT22;24536;45.488;12.238;2022-09-09T17:11:16;26.10;78.40
38788;DHT22;24536;45.488;12.238;2022-09-09T17:13:45;26.10;78.30
38788;DHT22;24536;45.488;12.238;2022-09-09T17:16:12;26.10;78.10
38788;DHT22;24536;45.488;12.238;2022-09-09T17:18:38;26.10;78.20
38788;DHT22;24536;45.488;12.238;2022-09-09T17:21:11;26.10;78.30
38788;DHT22;24536;45.488;12.238;2022-09-09T17:23:38;26.10;78.40
38788;DHT22;24536;45.488;12.238;2022-09-09T17:26:09;26.10;78.60
38788;DHT22;24536;45.488;12.238;2022-09-09T17:28:37;26.00;78.80
38788;DHT22;24536;45.488;12.238;2022-09-09T17:31:05;26.00;78.90
38788;DHT22;24536;45.488;12.238;2022-09-09T17:33:33;26.00;79.20
38788;DHT22;24536;45.488;12.238;2022-09-09T17:36:02;26.00;79.20
38788;DHT22;24536;45.488;12.238;2022-09-09T17:38:28;26.00;79.40
38788;DHT22;24536;45.488;12.238;2022-09-09T17:41:08;26.00;79.50
38788;DHT22;24536;45.488;12.238;2022-09-09T17:43:34;25.90;79.80
38788;DHT22;24536;45.488;12.238;2022-09-09T17:46:36;25.90;80.00
38788;DHT22;24536;45.488;12.238;2022-09-09T17:49:05;25.90;80.30
38788;DHT22;24536;45.488;12.238;2022-09-09T17:51:32;25.90;80.40
38788;DHT22;24536;45.488;12.238;2022-09-09T17:54:00;25.80;80.30